createdAt,value
2024-03-28T00:01:02.871Z,98904.11
2024-03-28T00:03:29.573Z,98905.19
2024-03-28T00:05:59.871Z,98902.41
2024-03-28T00:08:27.404Z,98895.43
2024-03-28T00:10:54.686Z,98896.95
2024-03-28T00:13:22.133Z,98900.98
2024-03-28T00:16:03.467Z,98899.50
2024-03-28T00:18:31.169Z,98904.71
2024-03-28T00:21:03.047Z,98907.71
2024-03-28T00:23:30.273Z,98911.93
2024-03-28T00:25:59.241Z,98914.66
2024-03-28T00:28:26.065Z,98914.34
2024-03-28T00:30:53.229Z,98918.09
2024-03-28T00:33:20.933Z,98921.88
2024-03-28T00:35:49.431Z,98925.39
2024-03-28T00:38:17.549Z,98922.67
2024-03-28T00:40:55.127Z,98921.77
2024-03-28T00:43:23.448Z,98925.14
2024-03-28T00:45:50.876Z,98928.17
2024-03-28T00:48:19.010Z,98929.45
2024-03-28T00:50:53.123Z,98934.37
2024-03-28T00:53:20.096Z,98938.93
2024-03-28T00:55:48.359Z,98942.79
2024-03-28T00:58:15.526Z,98941.89
2024-03-28T01:00:43.624Z,98938.86
2024-03-28T01:03:10.785Z,98938.98
2024-03-28T01:05:37.795Z,98943.38
2024-03-28T01:08:05.021Z,98944.52
2024-03-28T01:10:32.076Z,98943.08
2024-03-28T01:12:58.697Z,98946.58
2024-03-28T01:15:25.535Z,98954.16
2024-03-28T01:17:52.118Z,98961.27
2024-03-28T01:20:18.788Z,98962.66
2024-03-28T01:22:45.464Z,98955.91
2024-03-28T01:25:12.040Z,98958.57
2024-03-28T01:27:41.942Z,98957.48
2024-03-28T01:30:09.394Z,98954.27
2024-03-28T01:32:36.668Z,98949.77
2024-03-28T01:35:03.877Z,98947.89
2024-03-28T01:37:30.434Z,98943.66
2024-03-28T01:39:57.084Z,98941.23
2024-03-28T01:42:23.973Z,98941.52
2024-03-28T01:44:50.507Z,98944.02
2024-03-28T01:47:35.487Z,98940.62
2024-03-28T01:50:04.876Z,98938.33
2024-03-28T01:52:31.841Z,98931.91
2024-03-28T01:54:58.891Z,98931.27
2024-03-28T01:57:26.303Z,98936.04
2024-03-28T01:59:53.266Z,98933.47
2024-03-28T02:02:21.729Z,98935.69
2024-03-28T02:04:48.384Z,98937.58
2024-03-28T02:07:14.916Z,98940.85
2024-03-28T02:09:41.654Z,98947.27
2024-03-28T02:12:10.504Z,98952.25
2024-03-28T02:14:38.941Z,98958.42
2024-03-28T02:17:06.915Z,98963.61
2024-03-28T02:19:35.469Z,98965.95
2024-03-28T02:22:02.959Z,98967.91
2024-03-28T02:24:30.584Z,98974.39
2024-03-28T02:26:57.555Z,98974.49
2024-03-28T02:29:24.981Z,98969.74
2024-03-28T02:31:51.530Z,98977.64
2024-03-28T02:34:18.410Z,98981.01
2024-03-28T02:36:45.108Z,98978.30
2024-03-28T02:39:11.985Z,98980.16
2024-03-28T02:41:38.654Z,98983.64
2024-03-28T02:44:05.486Z,98989.86
2024-03-28T02:46:32.169Z,98995.73
2024-03-28T02:48:58.768Z,98994.85
2024-03-28T02:51:25.508Z,98990.94
2024-03-28T02:53:52.073Z,98987.55
2024-03-28T02:56:18.620Z,98994.62
2024-03-28T02:58:45.217Z,98994.58
2024-03-28T03:01:11.747Z,98988.36
2024-03-28T03:03:38.345Z,98991.00
2024-03-28T03:06:04.998Z,98996.40
2024-03-28T03:08:31.595Z,99002.40
2024-03-28T03:10:58.145Z,99009.36
2024-03-28T03:13:24.697Z,99015.67
2024-03-28T03:15:58.680Z,99016.90
2024-03-28T03:18:27.486Z,99015.96
2024-03-28T03:21:05.586Z,99018.83
2024-03-28T03:23:49.513Z,99019.13
2024-03-28T03:26:25.962Z,99024.66
2024-03-28T03:29:11.065Z,99026.89
2024-03-28T03:31:56.209Z,99027.11
2024-03-28T03:34:37.987Z,99021.17
2024-03-28T03:37:11.272Z,99018.52
2024-03-28T03:39:38.398Z,99022.20
2024-03-28T03:42:05.111Z,99017.47
2024-03-28T03:44:31.767Z,99021.77
2024-03-28T03:46:58.299Z,99017.40
2024-03-28T03:49:24.982Z,99018.08
2024-03-28T03:51:51.820Z,99017.89
2024-03-28T03:54:18.444Z,99020.87
2024-03-28T03:56:45.039Z,99020.74
2024-03-28T03:59:11.598Z,99016.73
2024-03-28T04:01:38.427Z,99012.02
2024-03-28T04:04:05.429Z,99012.84
2024-03-28T04:06:31.992Z,99006.14
2024-03-28T04:08:58.621Z,98999.13
2024-03-28T04:11:25.504Z,98985.53
2024-03-28T04:13:52.080Z,98980.66
2024-03-28T04:16:19.143Z,98984.15
2024-03-28T04:18:45.771Z,99001.17
2024-03-28T04:21:12.414Z,99008.33
2024-03-28T04:23:38.980Z,98997.89
2024-03-28T04:26:05.615Z,98989.91
2024-03-28T04:28:32.149Z,98990.15
2024-03-28T04:30:58.773Z,98999.38
2024-03-28T04:33:25.328Z,99007.46
2024-03-28T04:35:51.958Z,98996.70
2024-03-28T04:38:18.483Z,98984.79
2024-03-28T04:40:45.043Z,98977.77
2024-03-28T04:43:12.965Z,98977.11
2024-03-28T04:45:39.570Z,98976.27
2024-03-28T04:48:06.552Z,98975.05
2024-03-28T04:50:33.149Z,98993.42
2024-03-28T04:53:00.019Z,99000.30
2024-03-28T04:55:27.998Z,99000.82
2024-03-28T04:57:55.103Z,99003.43
2024-03-28T05:00:21.636Z,99004.04
2024-03-28T05:02:48.219Z,99008.05
2024-03-28T05:05:14.811Z,99004.02
2024-03-28T05:07:41.430Z,99007.85
2024-03-28T05:10:08.578Z,99020.92
2024-03-28T05:12:35.304Z,99031.56
2024-03-28T05:15:02.649Z,99031.41
2024-03-28T05:17:29.253Z,99027.79
2024-03-28T05:19:55.883Z,99029.58
2024-03-28T05:22:22.510Z,99043.89
2024-03-28T05:24:49.110Z,99051.60
2024-03-28T05:27:15.685Z,99045.98
2024-03-28T05:29:42.877Z,99030.56
2024-03-28T05:32:09.579Z,99031.51
2024-03-28T05:34:36.477Z,99033.84
2024-03-28T05:37:03.267Z,99038.13
2024-03-28T05:39:30.862Z,99038.54
2024-03-28T05:41:57.437Z,99047.35
2024-03-28T05:44:24.608Z,99052.76
2024-03-28T05:46:51.155Z,99055.50
2024-03-28T05:49:17.756Z,99063.81
2024-03-28T05:51:44.417Z,99075.07
2024-03-28T05:54:11.033Z,99079.74
2024-03-28T05:56:39.324Z,99083.36
2024-03-28T05:59:07.930Z,99082.33
2024-03-28T06:01:34.508Z,99077.54
2024-03-28T06:04:01.122Z,99072.39
2024-03-28T06:06:27.718Z,99084.30
2024-03-28T06:08:54.646Z,99091.30
2024-03-28T06:11:21.295Z,99099.90
2024-03-28T06:13:47.866Z,99103.45
2024-03-28T06:16:16.952Z,99104.38
2024-03-28T06:18:43.643Z,99106.91
2024-03-28T06:21:10.422Z,99103.98
2024-03-28T06:23:36.988Z,99106.45
2024-03-28T06:26:04.549Z,99104.84
2024-03-28T06:28:32.315Z,99115.01
2024-03-28T06:31:00.590Z,99112.75
2024-03-28T06:33:27.591Z,99119.08
2024-03-28T06:35:54.412Z,99121.92
2024-03-28T06:38:21.014Z,99123.42
2024-03-28T06:40:48.068Z,99138.70
2024-03-28T06:43:18.060Z,99154.30
2024-03-28T06:45:44.643Z,99178.91
2024-03-28T06:48:11.383Z,99194.31
2024-03-28T06:50:37.924Z,99186.08
2024-03-28T06:53:05.464Z,99185.10
2024-03-28T06:55:32.172Z,99190.80
2024-03-28T06:57:59.719Z,99191.02
2024-03-28T07:00:26.393Z,99195.30
2024-03-28T07:02:52.955Z,99197.05
2024-03-28T07:05:19.539Z,99201.07
2024-03-28T07:07:46.193Z,99197.80
2024-03-28T07:10:12.745Z,99196.60
2024-03-28T07:12:39.357Z,99197.02
2024-03-28T07:15:06.718Z,99201.20
2024-03-28T07:17:33.289Z,99204.80
2024-03-28T07:19:59.850Z,99207.41
2024-03-28T07:22:26.409Z,99214.27
2024-03-28T07:24:53.030Z,99214.66
2024-03-28T07:27:19.590Z,99219.63
2024-03-28T07:29:46.236Z,99231.22
2024-03-28T07:32:13.055Z,99246.04
2024-03-28T07:34:39.672Z,99245.75
2024-03-28T07:37:06.287Z,99255.85
2024-03-28T07:39:33.052Z,99259.80
2024-03-28T07:41:59.685Z,99265.33
2024-03-28T07:44:26.577Z,99276.63
2024-03-28T07:46:53.154Z,99279.70
2024-03-28T07:49:20.145Z,99280.46
2024-03-28T07:51:46.655Z,99282.70
2024-03-28T07:54:13.334Z,99284.30
2024-03-28T07:56:40.365Z,99276.31
2024-03-28T07:59:08.403Z,99262.46
2024-03-28T08:01:35.963Z,99257.35
2024-03-28T08:04:03.087Z,99258.79
2024-03-28T08:06:29.690Z,99250.70
2024-03-28T08:08:56.269Z,99250.14
2024-03-28T08:11:22.873Z,99250.25
2024-03-28T08:13:50.341Z,99242.48
2024-03-28T08:16:17.187Z,99239.84
2024-03-28T08:18:43.744Z,99231.84
2024-03-28T08:21:10.311Z,99227.91
2024-03-28T08:23:36.894Z,99227.54
2024-03-28T08:26:04.525Z,99229.98
2024-03-28T08:28:31.204Z,99234.92
2024-03-28T08:30:58.483Z,99243.33
2024-03-28T08:33:25.416Z,99238.81
2024-03-28T08:35:52.010Z,99230.71
2024-03-28T08:38:18.961Z,99224.96
2024-03-28T08:40:45.550Z,99218.28
2024-03-28T08:43:12.124Z,99221.97
2024-03-28T08:45:40.001Z,99218.33
2024-03-28T08:48:09.262Z,99204.98
2024-03-28T08:50:37.067Z,99200.20
2024-03-28T08:53:03.678Z,99200.32
2024-03-28T08:55:30.309Z,99196.84
2024-03-28T08:57:57.093Z,99198.78
2024-03-28T09:00:26.429Z,99195.48
2024-03-28T09:02:56.107Z,99183.95
2024-03-28T09:05:22.787Z,99164.37
2024-03-28T09:07:50.520Z,99151.60
2024-03-28T09:10:17.621Z,99154.27
2024-03-28T09:12:48.820Z,99149.63
2024-03-28T09:15:15.700Z,99148.98
2024-03-28T09:17:42.288Z,99144.10
2024-03-28T09:20:09.419Z,99127.17
2024-03-28T09:22:38.346Z,99123.41
2024-03-28T09:25:05.915Z,99115.20
2024-03-28T09:27:32.483Z,99129.27
2024-03-28T09:29:59.117Z,99130.49
2024-03-28T09:32:26.107Z,99132.31
2024-03-28T09:34:52.732Z,99144.19
2024-03-28T09:37:19.814Z,99135.66
2024-03-28T09:39:47.598Z,99133.57
2024-03-28T09:42:20.587Z,99124.41
2024-03-28T09:44:53.410Z,99119.15
2024-03-28T09:47:22.314Z,99126.68
2024-03-28T09:49:49.203Z,99145.45
2024-03-28T09:52:15.829Z,99175.45
2024-03-28T09:54:45.310Z,99178.48
2024-03-28T09:57:12.047Z,99163.23
2024-03-28T09:59:38.647Z,99161.05
2024-03-28T10:02:18.697Z,99158.33
2024-03-28T10:04:52.024Z,99169.38
2024-03-28T10:07:19.307Z,99190.36
2024-03-28T10:09:47.503Z,99191.24
2024-03-28T10:12:15.063Z,99185.45
2024-03-28T10:14:53.073Z,99174.73
2024-03-28T10:17:19.951Z,99160.77
2024-03-28T10:20:02.706Z,99164.27
2024-03-28T10:22:32.967Z,99169.27
2024-03-28T10:24:59.554Z,99179.58
2024-03-28T10:27:27.474Z,99178.64
2024-03-28T10:29:56.137Z,99174.63
2024-03-28T10:32:23.580Z,99173.54
2024-03-28T10:34:51.465Z,99173.73
2024-03-28T10:37:23.524Z,99172.22
2024-03-28T10:39:53.048Z,99166.14
2024-03-28T10:42:19.646Z,99171.63
2024-03-28T10:44:47.771Z,99171.55
2024-03-28T10:47:17.081Z,99168.58
2024-03-28T10:49:55.177Z,99179.39
2024-03-28T10:52:26.426Z,99188.30
2024-03-28T10:55:01.635Z,99196.70
2024-03-28T10:57:29.305Z,99205.09
2024-03-28T10:59:56.671Z,99213.16
2024-03-28T11:02:23.454Z,99215.95
2024-03-28T11:04:52.131Z,99211.37
2024-03-28T11:07:18.928Z,99182.66
2024-03-28T11:09:45.779Z,99181.98
2024-03-28T11:12:12.746Z,99183.36
2024-03-28T11:14:39.519Z,99184.21
2024-03-28T11:17:06.287Z,99185.15
2024-03-28T11:19:34.643Z,99185.55
2024-03-28T11:22:03.112Z,99193.66
2024-03-28T11:24:30.878Z,99193.25
2024-03-28T11:26:59.566Z,99194.80
2024-03-28T11:29:27.675Z,99186.69
2024-03-28T11:31:58.745Z,99182.55
2024-03-28T11:34:29.110Z,99172.27
2024-03-28T11:36:58.294Z,99170.18
2024-03-28T11:39:28.218Z,99175.48
2024-03-28T11:41:55.059Z,99160.50
2024-03-28T11:44:22.002Z,99153.73
2024-03-28T11:46:48.725Z,99151.77
2024-03-28T11:49:21.195Z,99153.19
2024-03-28T11:51:47.952Z,99140.99
2024-03-28T11:54:18.653Z,99142.30
2024-03-28T11:56:45.780Z,99151.95
2024-03-28T11:59:22.423Z,99152.73
2024-03-28T12:01:49.983Z,99144.30
2024-03-28T12:04:24.044Z,99146.25
2024-03-28T12:06:50.925Z,99151.77
2024-03-28T12:09:18.652Z,99150.43
2024-03-28T12:11:45.268Z,99150.33
2024-03-28T12:14:15.196Z,99155.11
2024-03-28T12:16:47.011Z,99159.61
2024-03-28T12:19:16.160Z,99161.90
2024-03-28T12:21:43.733Z,99150.33
2024-03-28T12:24:10.462Z,99155.52
2024-03-28T12:26:37.163Z,99154.23
2024-03-28T12:29:04.711Z,99164.44
2024-03-28T12:31:31.382Z,99168.17
2024-03-28T12:33:58.067Z,99165.66
2024-03-28T12:36:32.298Z,99170.71
2024-03-28T12:39:00.395Z,99170.34
2024-03-28T12:41:27.604Z,99180.50
2024-03-28T12:43:59.221Z,99179.48
2024-03-28T12:46:26.008Z,99174.58
2024-03-28T12:48:53.312Z,99171.02
2024-03-28T12:51:20.136Z,99177.67
2024-03-28T12:53:46.761Z,99183.80
2024-03-28T12:56:14.470Z,99195.34
2024-03-28T12:58:41.694Z,99190.21
2024-03-28T13:01:08.270Z,99199.40
2024-03-28T13:03:34.887Z,99206.63
2024-03-28T13:06:01.472Z,99209.83
2024-03-28T13:08:28.078Z,99212.92
2024-03-28T13:10:55.439Z,99215.75
2024-03-28T13:13:22.103Z,99223.29
2024-03-28T13:15:48.774Z,99222.18
2024-03-28T13:18:15.347Z,99225.60
2024-03-28T13:20:41.949Z,99229.84
2024-03-28T13:23:08.535Z,99231.45
2024-03-28T13:25:38.278Z,99232.61
2024-03-28T13:28:07.762Z,99238.42
2024-03-28T13:30:34.407Z,99241.48
2024-03-28T13:33:04.221Z,99238.21
2024-03-28T13:35:30.788Z,99244.61
2024-03-28T13:37:57.478Z,99236.35
2024-03-28T13:40:24.110Z,99233.92
2024-03-28T13:42:50.948Z,99239.95
2024-03-28T13:45:17.481Z,99246.96
2024-03-28T13:47:44.147Z,99241.90
2024-03-28T13:50:11.227Z,99250.89
2024-03-28T13:52:37.871Z,99268.05
2024-03-28T13:55:04.895Z,99272.67
2024-03-28T13:57:31.463Z,99271.86
2024-03-28T13:59:58.102Z,99273.14
2024-03-28T14:02:24.664Z,99275.08
2024-03-28T14:04:52.026Z,99272.15
2024-03-28T14:07:18.660Z,99272.36
2024-03-28T14:09:47.590Z,99271.88
2024-03-28T14:12:16.963Z,99283.84
2024-03-28T14:14:43.490Z,99286.34
2024-03-28T14:17:10.040Z,99294.88
2024-03-28T14:19:36.645Z,99293.03
2024-03-28T14:22:03.861Z,99304.27
2024-03-28T14:24:30.739Z,99319.84
2024-03-28T14:26:57.272Z,99317.19
2024-03-28T14:29:23.820Z,99324.08
2024-03-28T14:31:50.475Z,99325.71
2024-03-28T14:34:18.062Z,99331.66
2024-03-28T14:36:44.742Z,99328.95
2024-03-28T14:39:11.585Z,99328.24
2024-03-28T14:41:38.093Z,99331.79
2024-03-28T14:44:04.891Z,99338.30
2024-03-28T14:46:31.757Z,99339.04
2024-03-28T14:48:58.490Z,99341.91
2024-03-28T14:51:24.995Z,99342.44
2024-03-28T14:53:54.350Z,99346.59
2024-03-28T14:56:21.330Z,99346.39
2024-03-28T14:58:48.212Z,99341.39
2024-03-28T15:01:16.671Z,99348.89
2024-03-28T15:03:45.523Z,99340.73
2024-03-28T15:06:12.330Z,99340.26
2024-03-28T15:08:38.920Z,99347.95
2024-03-28T15:11:07.129Z,99356.92
2024-03-28T15:13:33.699Z,99355.23
2024-03-28T15:16:06.347Z,99359.86
2024-03-28T15:18:32.952Z,99357.36
2024-03-28T15:21:00.545Z,99357.90
2024-03-28T15:23:27.127Z,99355.74
2024-03-28T15:25:56.385Z,99348.54
2024-03-28T15:28:23.448Z,99347.25
2024-03-28T15:30:50.093Z,99350.29
2024-03-28T15:33:16.778Z,99362.80
2024-03-28T15:35:43.389Z,99371.61
2024-03-28T15:38:09.898Z,99379.05
2024-03-28T15:40:38.967Z,99387.52
2024-03-28T15:43:06.093Z,99391.52
2024-03-28T15:45:32.643Z,99412.95
2024-03-28T15:47:59.874Z,99423.89
2024-03-28T15:50:26.600Z,99421.25
2024-03-28T15:52:53.319Z,99409.52
2024-03-28T15:55:21.475Z,99413.25
2024-03-28T15:57:48.886Z,99415.38
2024-03-28T16:00:15.630Z,99406.60
2024-03-28T16:02:42.312Z,99401.27
2024-03-28T16:05:09.738Z,99401.79
2024-03-28T16:07:36.732Z,99399.23
2024-03-28T16:10:03.772Z,99407.23
2024-03-28T16:12:30.700Z,99410.30
2024-03-28T16:14:57.284Z,99418.90
2024-03-28T16:17:23.832Z,99420.54
2024-03-28T16:19:50.443Z,99422.64
2024-03-28T16:22:17.025Z,99434.23
2024-03-28T16:24:44.544Z,99442.92
2024-03-28T16:27:11.424Z,99453.92
2024-03-28T16:29:38.465Z,99461.08
2024-03-28T16:32:06.058Z,99464.42
2024-03-28T16:34:32.757Z,99478.46
2024-03-28T16:36:59.474Z,99489.36
2024-03-28T16:39:26.437Z,99486.18
2024-03-28T16:41:54.703Z,99487.33
2024-03-28T16:44:21.605Z,99485.25
2024-03-28T16:46:48.142Z,99488.00
2024-03-28T16:49:14.765Z,99485.98
2024-03-28T16:51:41.691Z,99494.98
2024-03-28T16:54:08.437Z,99499.96
2024-03-28T16:56:35.424Z,99506.04
2024-03-28T16:59:02.816Z,99508.95
2024-03-28T17:01:29.365Z,99496.87
2024-03-28T17:03:59.405Z,99493.69
2024-03-28T17:06:26.023Z,99499.00
2024-03-28T17:08:52.694Z,99499.08
2024-03-28T17:11:19.250Z,99493.55
2024-03-28T17:13:45.930Z,99492.45
2024-03-28T17:16:12.641Z,99505.39
2024-03-28T17:18:40.468Z,99514.80
2024-03-28T17:21:07.858Z,99523.88
2024-03-28T17:23:35.439Z,99527.38
2024-03-28T17:26:11.067Z,99523.58
2024-03-28T17:28:38.416Z,99526.20
2024-03-28T17:31:10.767Z,99524.82
2024-03-28T17:33:38.382Z,99531.83
2024-03-28T17:36:06.897Z,99532.15
2024-03-28T17:38:34.366Z,99534.23
2024-03-28T17:41:01.107Z,99538.00
2024-03-28T17:43:27.759Z,99538.19
2024-03-28T17:45:54.294Z,99540.25
2024-03-28T17:48:21.338Z,99548.30
2024-03-28T17:50:47.974Z,99549.38
2024-03-28T17:53:15.003Z,99558.23
2024-03-28T17:55:42.447Z,99563.02
2024-03-28T17:58:09.714Z,99569.21
2024-03-28T18:00:39.376Z,99572.41
2024-03-28T18:03:06.523Z,99575.27
2024-03-28T18:05:33.377Z,99580.84
2024-03-28T18:08:00.303Z,99590.93
2024-03-28T18:10:26.957Z,99594.73
2024-03-28T18:12:53.557Z,99605.91
2024-03-28T18:15:20.203Z,99613.45
2024-03-28T18:17:46.831Z,99620.45
2024-03-28T18:20:13.477Z,99623.50
2024-03-28T18:22:40.849Z,99625.34
2024-03-28T18:25:07.656Z,99630.13
2024-03-28T18:27:34.562Z,99632.50
2024-03-28T18:30:01.304Z,99644.59
2024-03-28T18:32:27.856Z,99657.64
2024-03-28T18:34:54.417Z,99662.39
2024-03-28T18:37:21.005Z,99672.10
2024-03-28T18:39:47.582Z,99669.84
2024-03-28T18:42:14.330Z,99673.08
2024-03-28T18:44:40.920Z,99682.05
2024-03-28T18:47:07.458Z,99688.40
2024-03-28T18:49:34.101Z,99687.58
2024-03-28T18:52:01.126Z,99689.13
2024-03-28T18:54:28.337Z,99686.88
2024-03-28T18:56:54.904Z,99688.35
2024-03-28T18:59:21.547Z,99697.12
2024-03-28T19:01:48.599Z,99700.23
2024-03-28T19:04:15.804Z,99695.59
2024-03-28T19:06:42.415Z,99689.58
2024-03-28T19:09:09.487Z,99698.10
2024-03-28T19:11:36.412Z,99707.28
2024-03-28T19:14:04.938Z,99715.87
2024-03-28T19:16:31.486Z,99725.27
2024-03-28T19:18:58.201Z,99733.05
2024-03-28T19:21:25.997Z,99738.66
2024-03-28T19:23:52.627Z,99744.95
2024-03-28T19:26:19.195Z,99754.27
2024-03-28T19:28:45.863Z,99756.59
2024-03-28T19:31:12.444Z,99757.33
2024-03-28T19:33:39.221Z,99761.63
2024-03-28T19:36:06.002Z,99766.27
2024-03-28T19:38:33.797Z,99766.17
2024-03-28T19:41:00.383Z,99775.36
2024-03-28T19:43:28.819Z,99777.40
2024-03-28T19:45:55.351Z,99783.36
2024-03-28T19:48:23.319Z,99787.83
2024-03-28T19:50:49.886Z,99793.06
2024-03-28T19:53:16.484Z,99801.08
2024-03-28T19:55:43.202Z,99805.55
2024-03-28T19:58:09.751Z,99810.00
2024-03-28T20:00:36.323Z,99811.99
2024-03-28T20:03:02.951Z,99812.77
2024-03-28T20:05:29.552Z,99817.83
2024-03-28T20:07:59.400Z,99827.55
2024-03-28T20:10:26.034Z,99839.71
2024-03-28T20:12:52.561Z,99836.56
2024-03-28T20:15:19.291Z,99836.45
2024-03-28T20:17:46.639Z,99833.52
2024-03-28T20:20:13.310Z,99843.61
2024-03-28T20:22:40.442Z,99848.95
2024-03-28T20:25:07.492Z,99842.20
2024-03-28T20:27:34.158Z,99843.39
2024-03-28T20:30:00.965Z,99856.63
2024-03-28T20:32:28.884Z,99864.73
2024-03-28T20:34:58.433Z,99868.41
2024-03-28T20:37:25.209Z,99868.54
2024-03-28T20:39:52.306Z,99873.04
2024-03-28T20:42:18.971Z,99876.92
2024-03-28T20:44:45.636Z,99872.88
2024-03-28T20:47:17.395Z,99872.05
2024-03-28T20:49:44.422Z,99879.95
2024-03-28T20:52:11.018Z,99880.89
2024-03-28T20:54:38.497Z,99879.95
2024-03-28T20:57:05.430Z,99876.06
2024-03-28T20:59:32.224Z,99887.83
2024-03-28T21:01:58.958Z,99893.19
2024-03-28T21:04:28.771Z,99879.45
2024-03-28T21:06:58.562Z,99872.16
2024-03-28T21:09:47.046Z,99880.16
2024-03-28T21:12:17.251Z,99869.87
2024-03-28T21:14:49.391Z,99874.27
2024-03-28T21:17:16.858Z,99865.08
2024-03-28T21:19:45.289Z,99867.27
2024-03-28T21:22:13.028Z,99873.23
2024-03-28T21:24:40.678Z,99883.60
2024-03-28T21:27:08.713Z,99885.98
2024-03-28T21:29:36.268Z,99890.08
2024-03-28T21:32:04.608Z,99898.27
2024-03-28T21:34:32.617Z,99905.54
2024-03-28T21:36:59.806Z,99904.48
2024-03-28T21:39:26.498Z,99909.77
2024-03-28T21:41:53.101Z,99915.36
2024-03-28T21:44:19.860Z,99915.90
2024-03-28T21:46:47.470Z,99918.63
2024-03-28T21:49:14.021Z,99921.14
2024-03-28T21:51:40.582Z,99929.98
2024-03-28T21:54:07.174Z,99939.84
2024-03-28T21:56:34.081Z,99947.84
2024-03-28T21:59:19.688Z,99955.09
2024-03-28T22:01:46.261Z,99961.97
2024-03-28T22:04:12.910Z,99970.61
2024-03-28T22:06:40.312Z,99979.92
2024-03-28T22:09:07.213Z,99983.20
2024-03-28T22:11:33.988Z,99993.38
2024-03-28T22:14:00.556Z,100002.55
2024-03-28T22:16:27.082Z,100013.20
2024-03-28T22:18:54.362Z,100015.75
2024-03-28T22:21:21.793Z,100020.77
2024-03-28T22:23:48.336Z,100022.11
2024-03-28T22:26:15.101Z,100021.91
2024-03-28T22:28:41.703Z,100018.39
2024-03-28T22:31:09.033Z,100024.77
2024-03-28T22:33:35.651Z,100024.88
2024-03-28T22:36:02.154Z,100022.48
2024-03-28T22:38:28.947Z,100026.06
2024-03-28T22:40:56.739Z,100033.79
2024-03-28T22:43:25.154Z,100035.15
2024-03-28T22:46:00.843Z,100033.71
2024-03-28T22:48:27.449Z,100036.91
2024-03-28T22:50:54.750Z,100039.48
2024-03-28T22:53:22.008Z,100040.84
2024-03-28T22:55:58.809Z,100053.08
2024-03-28T22:58:25.405Z,100064.90
2024-03-28T23:00:53.473Z,100070.33
2024-03-28T23:03:20.169Z,100066.48
2024-03-28T23:05:48.529Z,100071.34
2024-03-28T23:08:15.574Z,100073.66
2024-03-28T23:10:42.675Z,100069.98
2024-03-28T23:13:09.223Z,100070.96
2024-03-28T23:15:35.791Z,100082.89
2024-03-28T23:18:02.331Z,100090.73
2024-03-28T23:20:29.018Z,100083.48
2024-03-28T23:22:57.981Z,100083.82
2024-03-28T23:25:24.711Z,100086.11
2024-03-28T23:27:51.354Z,100082.80
2024-03-28T23:30:17.959Z,100083.15
2024-03-28T23:32:44.574Z,100080.98
2024-03-28T23:35:11.234Z,100087.39
2024-03-28T23:37:37.877Z,100087.00
2024-03-28T23:40:05.185Z,100084.66
2024-03-28T23:42:31.960Z,100078.86
2024-03-28T23:44:58.541Z,100085.42
2024-03-28T23:47:25.121Z,100089.52
2024-03-28T23:49:52.183Z,100084.72
2024-03-28T23:52:19.931Z,100090.31
2024-03-28T23:54:47.696Z,100096.10
2024-03-28T23:57:14.298Z,100097.13
2024-03-28T23:59:40.865Z,100092.29
